createdAt,value
2019-02-21T00:02:11.344Z,9.07
2019-02-21T00:04:39.335Z,9.37
2019-02-21T00:07:07.232Z,9.20
2019-02-21T00:09:35.467Z,8.97
2019-02-21T00:12:03.394Z,9.77
2019-02-21T00:14:31.413Z,9.33
2019-02-21T00:16:59.514Z,8.87
2019-02-21T00:19:27.413Z,9.27
2019-02-21T00:21:55.255Z,8.87
2019-02-21T00:24:23.220Z,9.33
2019-02-21T00:26:51.487Z,9.40
2019-02-21T00:29:19.370Z,10.37
2019-02-21T00:31:47.226Z,10.47
2019-02-21T00:34:15.227Z,9.87
2019-02-21T00:36:43.046Z,9.53
2019-02-21T00:39:11.261Z,9.20
2019-02-21T00:41:39.607Z,9.30
2019-02-21T00:44:07.527Z,9.40
2019-02-21T00:46:36.018Z,8.33
2019-02-21T00:49:03.991Z,8.30
2019-02-21T00:51:31.911Z,7.93
2019-02-21T00:54:00.211Z,8.60
2019-02-21T00:56:28.108Z,9.17
2019-02-21T00:58:56.106Z,9.50
2019-02-21T01:01:24.061Z,9.33
2019-02-21T01:03:52.081Z,10.20
2019-02-21T01:06:19.962Z,10.80
2019-02-21T01:08:48.498Z,10.00
2019-02-21T01:11:16.891Z,10.27
2019-02-21T01:13:45.137Z,9.13
2019-02-21T01:16:13.180Z,8.70
2019-02-21T01:18:41.247Z,8.90
2019-02-21T01:21:09.166Z,8.80
2019-02-21T01:23:37.026Z,8.17
2019-02-21T01:26:04.978Z,8.80
2019-02-21T01:28:33.417Z,8.60
2019-02-21T01:31:01.747Z,8.70
2019-02-21T01:33:30.006Z,8.90
2019-02-21T01:35:57.976Z,8.63
2019-02-21T01:38:25.926Z,8.20
2019-02-21T01:40:54.195Z,8.53
2019-02-21T01:43:22.179Z,7.97
2019-02-21T01:45:50.183Z,8.53
2019-02-21T01:48:18.137Z,8.57
2019-02-21T01:50:46.043Z,8.77
2019-02-21T01:53:13.952Z,9.00
2019-02-21T01:55:42.023Z,9.03
2019-02-21T01:58:10.145Z,9.20
2019-02-21T02:00:38.611Z,9.30
2019-02-21T02:03:06.534Z,9.17
2019-02-21T02:05:34.562Z,9.90
2019-02-21T02:08:02.485Z,9.43
2019-02-21T02:10:30.623Z,9.53
2019-02-21T02:12:58.605Z,9.67
2019-02-21T02:15:26.833Z,9.43
2019-02-21T02:17:54.902Z,9.57
2019-02-21T02:20:22.837Z,9.40
2019-02-21T02:22:51.227Z,9.73
2019-02-21T02:25:19.136Z,8.57
2019-02-21T02:27:47.047Z,8.90
2019-02-21T02:30:15.389Z,8.53
2019-02-21T02:32:43.302Z,8.77
2019-02-21T02:35:11.188Z,9.17
2019-02-21T02:37:39.087Z,8.90
2019-02-21T02:40:07.435Z,8.63
2019-02-21T02:42:35.732Z,8.37
2019-02-21T02:45:04.216Z,8.87
2019-02-21T02:47:32.562Z,9.00
2019-02-21T02:50:00.560Z,9.20
2019-02-21T02:52:28.718Z,9.00
2019-02-21T02:54:56.555Z,9.30
2019-02-21T02:57:24.516Z,9.23
2019-02-21T02:59:52.968Z,8.97
2019-02-21T03:02:20.877Z,9.30
2019-02-21T03:04:48.913Z,8.43
2019-02-21T03:07:18.550Z,9.20
2019-02-21T03:09:46.805Z,9.77
2019-02-21T03:12:17.158Z,9.83
2019-02-21T03:14:45.506Z,8.83
2019-02-21T03:17:13.991Z,9.80
2019-02-21T03:19:42.311Z,10.00
2019-02-21T03:22:10.518Z,9.50
2019-02-21T03:24:57.800Z,9.80
2019-02-21T03:27:26.457Z,9.27
2019-02-21T03:29:54.683Z,9.50
2019-02-21T03:32:23.026Z,9.90
2019-02-21T03:34:51.295Z,9.30
2019-02-21T03:37:20.533Z,9.27
2019-02-21T03:39:48.672Z,9.70
2019-02-21T03:42:18.535Z,9.53
2019-02-21T03:44:46.689Z,9.83
2019-02-21T03:47:15.147Z,9.70
2019-02-21T03:49:43.474Z,9.73
2019-02-21T03:52:11.803Z,11.07
2019-02-21T03:54:40.086Z,9.73
2019-02-21T03:57:08.428Z,9.90
2019-02-21T03:59:36.741Z,9.80
2019-02-21T04:02:05.829Z,9.60
2019-02-21T04:04:33.735Z,9.23
2019-02-21T04:07:01.942Z,9.60
2019-02-21T04:09:29.886Z,9.97
2019-02-21T04:11:57.780Z,9.50
2019-02-21T04:14:25.838Z,9.77
2019-02-21T04:16:53.775Z,9.97
2019-02-21T04:19:21.815Z,10.30
2019-02-21T04:21:49.743Z,9.87
2019-02-21T04:24:17.705Z,9.53
2019-02-21T04:26:45.757Z,10.53
2019-02-21T04:29:14.171Z,9.70
2019-02-21T04:31:42.062Z,9.50
2019-02-21T04:34:10.008Z,9.73
2019-02-21T04:36:37.904Z,9.33
2019-02-21T04:39:06.090Z,10.13
2019-02-21T04:41:34.420Z,10.00
2019-02-21T04:44:03.865Z,9.87
2019-02-21T04:46:32.148Z,9.47
2019-02-21T04:49:00.371Z,9.97
2019-02-21T04:51:28.219Z,9.63
2019-02-21T04:53:56.022Z,9.80
2019-02-21T04:56:24.044Z,10.17
2019-02-21T04:58:52.059Z,9.80
2019-02-21T05:01:19.924Z,10.10
2019-02-21T05:03:47.797Z,10.50
2019-02-21T05:06:15.803Z,10.00
2019-02-21T05:08:43.663Z,10.40
2019-02-21T05:11:11.702Z,10.17
2019-02-21T05:13:39.655Z,9.93
2019-02-21T05:16:07.586Z,9.77
2019-02-21T05:18:35.626Z,10.17
2019-02-21T05:21:03.534Z,9.93
2019-02-21T05:23:31.559Z,10.03
2019-02-21T05:25:59.498Z,9.80
2019-02-21T05:28:31.945Z,10.27
2019-02-21T05:31:14.451Z,10.40
2019-02-21T05:34:01.884Z,10.47
2019-02-21T05:36:49.239Z,10.60
2019-02-21T05:39:39.185Z,10.33
2019-02-21T05:42:32.867Z,10.77
2019-02-21T05:45:18.401Z,10.67
2019-02-21T05:48:05.693Z,10.07
2019-02-21T05:50:53.104Z,10.17
2019-02-21T05:53:43.218Z,10.37
2019-02-21T05:56:29.123Z,10.00
2019-02-21T05:59:19.190Z,10.27
2019-02-21T06:02:21.092Z,10.57
2019-02-21T06:05:23.442Z,10.40
2019-02-21T06:08:19.566Z,10.93
2019-02-21T06:11:05.437Z,10.20
2019-02-21T06:13:58.530Z,10.47
2019-02-21T06:16:41.463Z,10.23
2019-02-21T06:19:27.431Z,9.90
2019-02-21T06:22:20.947Z,10.87
2019-02-21T06:24:54.569Z,11.00
2019-02-21T06:27:26.681Z,10.70
2019-02-21T06:30:07.838Z,10.70
2019-02-21T06:32:35.775Z,10.67
2019-02-21T06:35:04.147Z,10.27
2019-02-21T06:37:32.116Z,11.37
2019-02-21T06:40:00.141Z,12.87
2019-02-21T06:42:28.163Z,25.70
2019-02-21T06:44:56.082Z,19.10
2019-02-21T06:47:24.329Z,14.27
2019-02-21T06:49:52.355Z,14.23
2019-02-21T06:52:20.221Z,13.87
2019-02-21T06:54:48.145Z,14.33
2019-02-21T06:57:17.254Z,15.47
2019-02-21T06:59:45.460Z,13.70
2019-02-21T07:02:13.776Z,14.10
2019-02-21T07:04:41.675Z,13.20
2019-02-21T07:07:10.044Z,12.13
2019-02-21T07:09:37.974Z,14.77
2019-02-21T07:12:05.851Z,15.63
2019-02-21T07:14:46.671Z,13.97
2019-02-21T07:17:14.642Z,13.50
2019-02-21T07:19:42.535Z,14.30
2019-02-21T07:22:17.475Z,13.97
2019-02-21T07:24:41.147Z,15.63
2019-02-21T07:27:09.198Z,15.60
2019-02-21T07:29:38.801Z,15.93
2019-02-21T07:32:06.977Z,17.03
2019-02-21T07:34:34.875Z,17.23
2019-02-21T07:37:02.803Z,18.33
2019-02-21T07:39:36.168Z,17.87
2019-02-21T07:42:00.475Z,17.73
2019-02-21T07:44:28.449Z,19.27
2019-02-21T07:46:56.574Z,17.67
2019-02-21T07:49:25.714Z,18.33
2019-02-21T07:51:53.722Z,17.63
2019-02-21T07:54:21.986Z,19.30
2019-02-21T07:56:49.971Z,20.40
2019-02-21T07:59:17.804Z,21.07
2019-02-21T08:01:45.702Z,19.50
2019-02-21T08:04:13.591Z,20.77
2019-02-21T08:06:41.848Z,20.63
2019-02-21T08:09:10.118Z,21.60
2019-02-21T08:11:39.793Z,20.60
2019-02-21T08:14:08.004Z,22.40
2019-02-21T08:16:36.072Z,22.03
2019-02-21T08:19:04.192Z,21.57
2019-02-21T08:21:32.527Z,22.63
2019-02-21T08:24:00.639Z,22.17
2019-02-21T08:26:28.513Z,22.97
2019-02-21T08:28:56.528Z,22.50
2019-02-21T08:31:24.483Z,22.83
2019-02-21T08:33:59.052Z,22.60
2019-02-21T08:36:26.904Z,23.27
2019-02-21T08:38:54.774Z,25.03
2019-02-21T08:41:25.580Z,23.43
2019-02-21T08:43:52.413Z,24.43
2019-02-21T08:46:20.253Z,23.87
2019-02-21T08:48:48.243Z,24.80
2019-02-21T08:51:18.312Z,24.57
2019-02-21T08:53:45.863Z,25.43
2019-02-21T08:56:13.771Z,25.80
2019-02-21T08:58:41.699Z,23.63
2019-02-21T09:01:09.631Z,23.97
2019-02-21T09:03:37.502Z,24.27
2019-02-21T09:06:05.440Z,26.67
2019-02-21T09:08:36.796Z,25.93
2019-02-21T09:11:04.059Z,26.33
2019-02-21T09:13:32.095Z,29.07
2019-02-21T09:16:00.028Z,27.77
2019-02-21T09:18:27.943Z,28.90
2019-02-21T09:20:55.910Z,28.07
2019-02-21T09:23:23.887Z,29.33
2019-02-21T09:25:51.754Z,28.30
2019-02-21T09:28:19.713Z,28.30
2019-02-21T09:30:47.753Z,29.03
2019-02-21T09:33:17.702Z,26.40
2019-02-21T09:35:45.271Z,27.87
2019-02-21T09:38:13.133Z,26.80
2019-02-21T09:40:42.723Z,25.87
2019-02-21T09:43:10.851Z,24.93
2019-02-21T09:45:38.700Z,26.47
2019-02-21T09:48:06.635Z,26.60
2019-02-21T09:50:35.048Z,24.40
2019-02-21T09:53:03.042Z,23.70
2019-02-21T09:55:31.081Z,23.60
2019-02-21T09:57:59.123Z,24.80
2019-02-21T10:00:27.103Z,23.87
2019-02-21T10:02:56.743Z,25.07
2019-02-21T10:05:24.630Z,24.13
2019-02-21T10:07:52.581Z,22.83
2019-02-21T10:10:20.564Z,24.73
2019-02-21T10:12:48.563Z,23.63
2019-02-21T10:15:24.699Z,23.07
2019-02-21T10:17:52.663Z,22.30
2019-02-21T10:20:20.719Z,27.47
2019-02-21T10:22:48.650Z,27.80
2019-02-21T10:25:18.562Z,29.80
2019-02-21T10:27:46.469Z,32.17
2019-02-21T10:30:15.670Z,31.20
2019-02-21T10:32:43.558Z,27.40
2019-02-21T10:35:11.650Z,25.40
2019-02-21T10:37:39.947Z,24.80
2019-02-21T10:40:08.924Z,24.50
2019-02-21T10:42:36.960Z,27.27
2019-02-21T10:45:06.724Z,23.67
2019-02-21T10:47:34.910Z,24.63
2019-02-21T10:50:03.439Z,22.23
2019-02-21T10:52:31.335Z,21.90
2019-02-21T10:54:59.175Z,22.27
2019-02-21T10:57:27.023Z,19.90
2019-02-21T10:59:55.011Z,23.60
2019-02-21T11:02:23.240Z,23.77
2019-02-21T11:04:54.733Z,19.80
2019-02-21T11:07:20.939Z,24.23
2019-02-21T11:09:48.942Z,22.60
2019-02-21T11:12:18.322Z,22.30
2019-02-21T11:15:23.013Z,23.90
2019-02-21T11:17:49.948Z,21.97
2019-02-21T11:20:18.103Z,20.60
2019-02-21T11:22:46.006Z,18.63
2019-02-21T11:25:13.886Z,22.47
2019-02-21T11:27:42.024Z,22.47
2019-02-21T11:30:12.838Z,21.57
2019-02-21T11:32:40.893Z,19.10
2019-02-21T11:35:08.972Z,17.53
2019-02-21T11:37:43.248Z,18.13
2019-02-21T11:40:08.134Z,17.07
2019-02-21T11:42:36.186Z,18.03
2019-02-21T11:45:04.845Z,16.63
2019-02-21T11:47:32.787Z,15.30
2019-02-21T11:50:01.187Z,14.63
2019-02-21T11:52:29.110Z,15.07
2019-02-21T11:54:56.956Z,14.17
2019-02-21T11:57:24.925Z,16.27
2019-02-21T11:59:52.875Z,16.73
2019-02-21T12:02:20.813Z,15.60
2019-02-21T12:04:48.804Z,15.23
2019-02-21T12:07:16.818Z,15.30
2019-02-21T12:09:44.691Z,14.60
2019-02-21T12:12:12.555Z,12.50
2019-02-21T12:15:02.858Z,14.80
2019-02-21T12:17:30.955Z,13.27
2019-02-21T12:19:58.893Z,12.20
2019-02-21T12:22:26.847Z,11.20
2019-02-21T12:24:54.697Z,14.30
2019-02-21T12:27:22.595Z,12.10
2019-02-21T12:29:50.547Z,12.17
2019-02-21T12:32:19.607Z,12.03
2019-02-21T12:34:47.809Z,11.83
2019-02-21T12:37:15.722Z,12.87
2019-02-21T12:39:44.020Z,11.33
2019-02-21T12:42:12.279Z,13.43
2019-02-21T12:44:40.195Z,13.23
2019-02-21T12:47:08.235Z,12.53
2019-02-21T12:49:36.123Z,16.63
2019-02-21T12:52:04.472Z,14.90
2019-02-21T12:54:32.406Z,17.43
2019-02-21T12:57:00.447Z,15.20
2019-02-21T12:59:28.351Z,14.47
2019-02-21T13:01:56.322Z,22.17
2019-02-21T13:04:24.239Z,18.97
2019-02-21T13:06:52.143Z,19.93
2019-02-21T13:09:20.087Z,18.83
2019-02-21T13:11:48.423Z,16.53
2019-02-21T13:14:16.374Z,16.23
2019-02-21T13:16:44.327Z,16.40
2019-02-21T13:19:12.263Z,17.00
2019-02-21T13:21:40.227Z,21.43
2019-02-21T13:24:08.133Z,17.60
2019-02-21T13:26:36.267Z,17.37
2019-02-21T13:29:04.416Z,18.33
2019-02-21T13:31:32.427Z,14.27
2019-02-21T13:34:00.301Z,15.33
2019-02-21T13:36:28.276Z,15.20
2019-02-21T13:38:56.190Z,13.57
2019-02-21T13:41:24.091Z,12.87
2019-02-21T13:43:52.031Z,13.33
2019-02-21T13:46:20.283Z,13.10
2019-02-21T13:48:48.303Z,15.33
2019-02-21T13:51:16.328Z,13.40
2019-02-21T13:53:44.362Z,13.13
2019-02-21T13:56:12.372Z,13.37
2019-02-21T13:58:40.257Z,13.00
2019-02-21T14:01:08.114Z,13.43
2019-02-21T14:03:36.019Z,12.03
2019-02-21T14:06:04.159Z,10.33
2019-02-21T14:08:32.067Z,11.97
2019-02-21T14:10:59.974Z,11.83
2019-02-21T14:13:28.212Z,11.17
2019-02-21T14:16:11.198Z,11.00
2019-02-21T14:18:39.088Z,13.60
2019-02-21T14:21:07.018Z,11.67
2019-02-21T14:23:35.457Z,10.77
2019-02-21T14:26:03.844Z,11.50
2019-02-21T14:28:37.296Z,10.27
2019-02-21T14:31:07.304Z,10.47
2019-02-21T14:33:34.322Z,10.43
2019-02-21T14:36:02.351Z,11.80
2019-02-21T14:38:30.271Z,10.70
2019-02-21T14:40:58.219Z,11.20
2019-02-21T14:43:26.264Z,10.60
2019-02-21T14:45:54.187Z,9.90
2019-02-21T14:48:22.075Z,10.67
2019-02-21T14:50:50.006Z,13.50
2019-02-21T14:53:18.011Z,11.97
2019-02-21T14:55:45.840Z,11.00
2019-02-21T14:58:13.755Z,10.23
2019-02-21T15:00:41.767Z,12.10
2019-02-21T15:03:21.053Z,10.50
2019-02-21T15:05:39.638Z,9.73
2019-02-21T15:08:07.601Z,8.57
2019-02-21T15:10:35.660Z,9.30
2019-02-21T15:13:03.518Z,8.50
2019-02-21T15:16:15.879Z,93.23
2019-02-21T15:19:01.382Z,23.97
2019-02-21T15:21:29.826Z,8.20
2019-02-21T15:23:57.788Z,7.13
2019-02-21T15:26:25.809Z,8.67
2019-02-21T15:28:53.760Z,7.73
2019-02-21T15:31:21.967Z,7.30
2019-02-21T15:33:49.858Z,7.27
2019-02-21T15:36:17.795Z,8.47
2019-02-21T15:38:45.702Z,7.07
2019-02-21T15:41:13.955Z,7.07
2019-02-21T15:43:41.843Z,9.80
2019-02-21T15:46:09.931Z,11.70
2019-02-21T15:48:38.421Z,18.40
2019-02-21T15:51:06.353Z,9.33
2019-02-21T15:53:34.242Z,7.20
2019-02-21T15:56:02.227Z,8.27
2019-02-21T15:58:30.392Z,7.90
2019-02-21T16:00:58.283Z,8.77
2019-02-21T16:03:26.134Z,9.57
2019-02-21T16:05:54.088Z,9.77
2019-02-21T16:08:22.352Z,8.87
2019-02-21T16:10:50.355Z,13.97
2019-02-21T16:13:18.289Z,11.30
2019-02-21T16:16:21.949Z,10.70
2019-02-21T16:18:48.708Z,18.77
2019-02-21T16:21:16.754Z,12.80
2019-02-21T16:23:44.685Z,13.57
2019-02-21T16:26:12.656Z,13.53
2019-02-21T16:28:40.641Z,11.87
2019-02-21T16:31:08.631Z,10.80
2019-02-21T16:33:36.701Z,9.97
2019-02-21T16:36:04.643Z,9.37
2019-02-21T16:38:32.674Z,11.90
2019-02-21T16:41:00.587Z,11.60
2019-02-21T16:43:28.435Z,11.83
2019-02-21T16:46:07.170Z,9.87
2019-02-21T16:48:26.480Z,10.03
2019-02-21T16:50:54.522Z,14.23
2019-02-21T16:53:22.463Z,18.10
2019-02-21T16:55:50.351Z,20.50
2019-02-21T16:58:18.560Z,20.80
2019-02-21T17:00:52.734Z,19.57
2019-02-21T17:03:16.145Z,21.27
2019-02-21T17:05:44.055Z,24.27
2019-02-21T17:08:12.015Z,29.63
2019-02-21T17:10:39.917Z,27.93
2019-02-21T17:13:07.951Z,28.67
2019-02-21T17:16:11.194Z,27.07
2019-02-21T17:18:38.486Z,23.87
2019-02-21T17:21:06.572Z,20.30
2019-02-21T17:23:34.871Z,20.77
2019-02-21T17:26:02.832Z,24.30
2019-02-21T17:28:34.176Z,29.30
2019-02-21T17:31:02.210Z,28.40
2019-02-21T17:33:30.174Z,26.43
2019-02-21T17:35:58.193Z,27.13
2019-02-21T17:38:26.089Z,28.97
2019-02-21T17:40:54.195Z,31.17
2019-02-21T17:43:22.178Z,27.73
2019-02-21T17:45:50.556Z,24.50
2019-02-21T17:48:20.546Z,22.10
2019-02-21T17:50:48.991Z,20.30
2019-02-21T17:53:17.770Z,18.33
2019-02-21T17:55:46.551Z,18.37
2019-02-21T17:58:17.205Z,17.03
2019-02-21T18:00:45.778Z,17.60
2019-02-21T18:03:14.654Z,17.17
2019-02-21T18:05:43.470Z,17.73
2019-02-21T18:08:12.232Z,18.77
2019-02-21T18:10:40.935Z,19.67
2019-02-21T18:13:09.690Z,19.63
2019-02-21T18:16:15.301Z,20.53
2019-02-21T18:18:42.883Z,20.87
2019-02-21T18:21:11.811Z,25.23
2019-02-21T18:23:40.682Z,27.07
2019-02-21T18:26:20.630Z,26.17
2019-02-21T18:28:49.547Z,29.73
2019-02-21T18:31:18.413Z,25.77
2019-02-21T18:33:47.267Z,24.10
2019-02-21T18:36:16.089Z,21.33
2019-02-21T18:38:45.086Z,28.47
2019-02-21T18:41:14.092Z,31.20
2019-02-21T18:43:42.861Z,37.53
2019-02-21T18:46:11.679Z,40.10
2019-02-21T18:48:40.394Z,34.37
2019-02-21T18:51:09.117Z,31.50
2019-02-21T18:53:37.974Z,30.70
2019-02-21T18:56:07.028Z,23.53
2019-02-21T18:58:35.815Z,20.77
2019-02-21T19:01:04.747Z,24.77
2019-02-21T19:03:35.825Z,23.43
2019-02-21T19:06:04.535Z,22.90
2019-02-21T19:08:33.355Z,25.07
2019-02-21T19:11:03.127Z,25.37
2019-02-21T19:13:47.446Z,23.83
2019-02-21T19:16:16.343Z,23.73
2019-02-21T19:18:45.210Z,23.03
2019-02-21T19:21:14.227Z,21.30
2019-02-21T19:23:43.083Z,21.50
2019-02-21T19:26:11.970Z,21.27
2019-02-21T19:28:40.923Z,22.00
2019-02-21T19:31:13.045Z,25.43
2019-02-21T19:33:42.930Z,32.87
2019-02-21T19:36:11.770Z,45.20
2019-02-21T19:38:40.676Z,61.37
2019-02-21T19:41:10.010Z,62.70
2019-02-21T19:44:07.966Z,45.57
2019-02-21T19:46:26.259Z,33.33
2019-02-21T19:48:54.989Z,29.07
2019-02-21T19:51:23.785Z,28.03
2019-02-21T19:53:52.600Z,28.87
2019-02-21T19:56:21.389Z,28.03
2019-02-21T19:58:50.829Z,26.60
2019-02-21T20:01:19.618Z,26.00
2019-02-21T20:03:49.707Z,25.10
2019-02-21T20:06:18.703Z,22.70
2019-02-21T20:08:47.530Z,20.80
2019-02-21T20:11:16.435Z,20.70
2019-02-21T20:14:10.404Z,19.87
2019-02-21T20:16:39.191Z,20.40
2019-02-21T20:19:07.956Z,19.57
2019-02-21T20:21:36.765Z,21.60
2019-02-21T20:24:05.667Z,20.30
2019-02-21T20:26:34.467Z,20.73
2019-02-21T20:29:04.376Z,23.23
2019-02-21T20:31:33.119Z,22.50
2019-02-21T20:34:01.862Z,20.40
2019-02-21T20:36:30.836Z,20.53
2019-02-21T20:39:01.279Z,22.40
2019-02-21T20:41:30.086Z,23.67
2019-02-21T20:43:58.882Z,25.77
2019-02-21T20:46:29.388Z,24.53
2019-02-21T20:48:58.379Z,23.47
2019-02-21T20:51:27.155Z,22.93
2019-02-21T20:53:59.130Z,22.40
2019-02-21T20:56:27.827Z,20.77
2019-02-21T20:58:56.650Z,22.50
2019-02-21T21:01:26.820Z,22.73
2019-02-21T21:03:55.630Z,23.83
2019-02-21T21:06:24.426Z,27.13
2019-02-21T21:08:53.407Z,23.40
2019-02-21T21:11:22.089Z,22.03
2019-02-21T21:14:07.666Z,20.60
2019-02-21T21:16:36.446Z,21.00
2019-02-21T21:19:05.278Z,27.07
2019-02-21T21:21:34.015Z,31.17
2019-02-21T21:24:03.092Z,27.73
2019-02-21T21:26:57.968Z,29.07
2019-02-21T21:29:26.723Z,25.73
2019-02-21T21:31:55.546Z,21.23
2019-02-21T21:34:24.230Z,21.30
2019-02-21T21:36:52.693Z,21.23
2019-02-21T21:39:21.240Z,19.73
2019-02-21T21:41:49.450Z,18.47
2019-02-21T21:44:17.818Z,20.37
2019-02-21T21:46:46.078Z,20.73
2019-02-21T21:49:13.987Z,19.23
2019-02-21T21:51:41.958Z,17.93
2019-02-21T21:54:09.851Z,17.03
2019-02-21T21:56:37.830Z,18.13
2019-02-21T21:59:05.737Z,19.83
2019-02-21T22:01:33.714Z,20.50
2019-02-21T22:04:01.822Z,20.13
2019-02-21T22:06:29.749Z,19.20
2019-02-21T22:09:04.500Z,19.33
2019-02-21T22:11:27.486Z,18.87
2019-02-21T22:14:16.959Z,18.20
2019-02-21T22:16:44.878Z,21.90
2019-02-21T22:19:12.848Z,22.13
2019-02-21T22:21:40.803Z,21.33
2019-02-21T22:24:08.782Z,18.80
2019-02-21T22:26:36.727Z,30.90
2019-02-21T22:29:04.768Z,38.63
2019-02-21T22:31:33.371Z,26.93
2019-02-21T22:34:01.374Z,23.43
2019-02-21T22:36:29.322Z,23.00
2019-02-21T22:38:57.170Z,22.10
2019-02-21T22:41:25.090Z,21.47
2019-02-21T22:43:53.107Z,20.87
2019-02-21T22:46:21.141Z,19.80
2019-02-21T22:48:49.367Z,20.57
2019-02-21T22:51:17.206Z,19.73
2019-02-21T22:53:45.220Z,20.80
2019-02-21T22:56:13.069Z,20.70
2019-02-21T22:58:44.918Z,19.83
2019-02-21T23:01:30.553Z,17.50
2019-02-21T23:04:25.688Z,20.40
2019-02-21T23:07:26.726Z,22.37
2019-02-21T23:09:54.742Z,22.40
2019-02-21T23:12:22.637Z,22.40
2019-02-21T23:14:50.463Z,23.17
2019-02-21T23:17:19.870Z,23.13
2019-02-21T23:19:47.770Z,23.07
2019-02-21T23:22:16.106Z,22.77
2019-02-21T23:24:44.222Z,21.40
2019-02-21T23:27:12.355Z,19.07
2019-02-21T23:29:40.972Z,18.57
2019-02-21T23:32:09.391Z,15.90
2019-02-21T23:34:39.551Z,15.10
2019-02-21T23:37:08.909Z,15.83
2019-02-21T23:39:38.554Z,16.07
2019-02-21T23:42:07.358Z,17.53
2019-02-21T23:44:35.294Z,18.93
2019-02-21T23:47:03.416Z,19.50
2019-02-21T23:49:31.599Z,18.73
2019-02-21T23:52:00.010Z,21.67
2019-02-21T23:54:27.917Z,21.80
2019-02-21T23:56:55.863Z,20.77
2019-02-21T23:59:23.738Z,21.73
